Antwerp, New York
Current Conditions -  °F | °C
As of 6:58 AM on Wednesday 28 Jan 2015 (Local Time) from KGTB Reporting Station
Clear Clear  
Wind Chill: -10°   Ceiling: Unl
Heat Index:   Visibility: 10mi
Dew Point: -7°   Wind: 5mph
Humidity: 73%   Direction: 290°WNW
Pressure: 30.12"   Gusts: NA
Location:  44.2°N, 75.61°W
Report Text: KGTB 281158Z AUTO 29004KT 10SM CLR M18/M21 A3012 RMK AO2 SLP218 T11781215 11159 21197 52028
Loading
Personal Weather Stations






























Interactive Weather Map New forecast layout! Learn more

10-Day Weather Forecast

Advertisements
Track Severe Weather on mobile